Sanford, MI

9:57 AM EDT on September 04, 2015 (GMT -0400)
East shore of Sanford lake. | | Change Station
CLOSE
Current Station
Personal Weather Station
Location: Sanford, MI
Elevation: 639 ft
Nearby Weather Stations

Elev 639 ft 43.70 °N, 84.38 °W | Updated 4 seconds ago

Fog
Fog
68.5 °F
Feels Like 68.5 °F
N
0.0
Wind Variable Wind from ENE
Gusts 0.0 mph

Today
High -- | Low -- °F
--% Chance of Precip.
Yesterday
High -- | Low -- °F
Precip. -- in
7:04 AM 8:08 PM
Waning Gibbous, 59% visible
Pressure 30.01 in
Visibility 2.0 miles
Clouds Overcast 400 ft
Dew Point 66 °F
Humidity 93%
Rainfall 0.00 in
Snow Depth Not available.
UV 1 out of 12
Pollen 9.70 out of 12
Air Quality Not available.
Flu Activity Not available.
METAR KIKW 041352Z AUTO 11004KT 2SM BR OVC004 21/20 A3001 RMK AO2 T02090201
Pressure 30.01 in
Visibility 2.0 miles
Clouds Overcast 400 ft
Dew Point 66 °F
Humidity 93%
Rainfall 0.00 in
Snow Depth Not available.
UV 1 out of 12
Pollen 9.70 out of 12
Air Quality Not available.
Flu Activity Not available.
METAR KIKW 041352Z AUTO 11004KT 2SM BR OVC004 21/20 A3001 RMK AO2 T02090201

10-Day Weather Forecast

×

Almanac

Astronomy

Sep. 04, 2015 Rise Set
Actual Time
Civil Twilight
Nautical Twilight
Astronomical Twilight
Moon
Length of Visible Light
Length of Day
Tomorrow will be .
, % of the Moon is Illuminated

Today's Extremes

State Highs State Lows

Community

WunderPhotos

Upload Photos

1,852,181 photos uploaded!

WunderBlogs® & News

Nearby

Air Quality

  Air Quality AQ Index Pollutant
Not available.

Snow Depth

Station Depth Elevation

Earthquake Activity

City Distance Mag. Time & Date
Minimum magnitude displayed is 2.5.

Coastal Water Temperatures

Place Temperature

Stations

Nearby Weather Stations

Station Location Temp. Windchill Dew Point Humidity Wind Precip. Elev Updated Type